MAD weather

Adolfo Suárez Madrid–Barajas Airport
Madrid, Madrid, Spain

Public forecast

Using degrees Celsius for public forecast. Weather courtesy of forecast.io.

METAR (pilot weather report)

Retrieved 2018/12/13 02:30 UTC (1 hour ago):

LEMD 130230Z 20009KT 8000 -RA BKN010 BKN015 08/08 Q1014 TEMPO RA

TAF (pilot weather forecast)

Forecast is more than 12 hours old.

Retrieved 2018/12/12 00:28 UTC (1 day ago):

TAF LEMD 122300Z 1300/1406 22008KT 6000 FEW012 BKN025 TX09/1315Z TNM00/1406Z PROB30 TEMPO 1303/1309 24015G25KT BECMG 1309/1310 29015KT TEMPO 1309/1318 30017G34KT TEMPO 1300/1305 2000 RADZ BR BKN008 TEMPO 1305/1312 4000 RA BKN012 BECMG 1312/1314 9999 NSW SCT025 PROB30 TEMPO 1312/1318 FEW025CB